AirNav   Everest Fuels
 
 333 users online  

KNRA Coupeville Naval Outlying Field
Coupeville, Washington, USA

GOING TO COUPEVILLE?


FAA INFORMATION EFFECTIVE 15 JULY 2021

Location

FAA Identifier: NRA
Lat/Long: 48-11-00.0000N 122-38-00.0000W
48-11.000000N 122-38.000000W
48.1833333,-122.6333333
(estimated)
Elevation: 199 ft. / 61 m (estimated)
Variation: 19E (2000)
From city: 3 miles SE of COUPEVILLE, WA
Time zone: UTC -7 (UTC -8 during Standard Time)
Zip code: 98239

Airport Operations

Airport use: Private use, STRICTLY MILITARY USE ONLY.
Activation date: 02/2001
Control tower: no
ARTCC: SEATTLE CENTER
FSS: SEATTLE FLIGHT SERVICE STATION
Attendance: MON-FRI 0800-0001
1700-0830Z++APR-OCT ATND OTHER TIMES BY NOTAM.
Wind indicator: yes
Segmented circle: no
Lights: PRIOR REQ. MIRL RY 14/32 OPRS AS RQRD FOR MIL OPNL REQUIREMENTS.

Airport Communications

WX AWOS-3 at OKH (4 nm N): 132.775 (360-675-8431)
WX ASOS at NUW (10 nm N): PHONE 360-257-8813
WX AWOS-3P at 0S9 (11 nm SW): 119.025 (360-379-1199)
WX AWOS-3PT at AWO (19 nm E): 135.625 (360-435-8045)
WX AWOS-3 at BVS (19 nm NE): 121.125 (360-757-7767)

Nearby radio navigation aids

VOR radial/distance  VOR name  Freq  Var
CVVr116/5.2PENN COVE VOR/DME117.2019E
PAEr298/21.3PAINE VOR/DME110.6020E

 
NDB name  Hdg/Dist  Freq  Var  ID
SKAGIT/BAY VIEW191/19.124016EBVS -... ...- ...
FRIDAY HARBOR125/25.128417EFHR ..-. .... .-.
EDIZ HOOK068/30.933817ENOW -. --- .--

Airport Services

Runway Information

Runway 14/32

Dimensions: 5400 x 200 ft. / 1646 x 61 m
Surface: concrete
Runway edge lights: medium intensity
RUNWAY 14  RUNWAY 32
Traffic pattern: rightright

Airport Ownership and Management from official FAA records

Ownership: U.S. Navy
Owner: US NAVY
COMMANDING OFFICER ATTN: CODE AOT, 3730 NORTH CHARLES
OAK HARBOR, WA 98278
Phone 360-257-2681/2
Manager: US NAVY
COMMANDING OFFICER ATTN: CODE AOT, 3730 NORTH CHARLES
OAK HARBOR, WA 98278
Phone 360-257-2681/2

Additional Remarks

FULL STOP LNDG NOT AUZD UNLESS EMERGENCY.
WHIDBEY ISLAND NAS (AULT FLD) ATIS AVBL ON FREQ 134.15/280.3.
FOR CD CTC WHIDBEY APCH AT 360-257-3310.
ASOS C360-678-2934.

Instrument Procedures

There are no published instrument procedures at KNRA.

Some nearby airports with instrument procedures:

KOKH - AJ Eisenberg Airport (4 nm N)
KNUW - Whidbey Island Naval Air Station (Ault Field) (10 nm N)
0S9 - Jefferson County International Airport (11 nm SW)
KAWO - Arlington Municipal Airport (19 nm E)
KBVS - Skagit Regional Airport (19 nm NE)
 
Loc | Ops | Rwys | IFR | FBO | Links
Com | Nav | Svcs | Stats | Notes
Area around KNRA (Coupeville Naval Outlying Field)
 
Road maps at: MapQuest Bing Google
 
Aerial photo
WARNING: Photo may not be current or correct
Aerial photo of KNRA (Coupeville Naval Outlying Field)
Taken in June 2006

Do you have a better or more recent aerial photo of Coupeville Naval Outlying Field that you would like to share? If so, please send us your photo.

 
Sectional chart

 
Airport distance calculator
Flying to Coupeville Naval Outlying Field? Find the distance to fly.

From to KNRA

Sunrise and sunset
Times for 02-Aug-2021
 Local
(UTC-7)
 Zulu
(UTC)
Morning civil twilight05:1212:12
Sunrise05:4912:49
Sunset20:4503:45
Evening civil twilight21:2104:21

Current date and time
Zulu (UTC)  02-Aug-2021 08:26:40
Local (UTC-7)  02-Aug-2021 01:26:40
 
METAR
KNUW 
10nm N 
020756Z 20006KT 8SM SCT060 BKN250 14/12 A3016 RMK AO2 SLP214 T01390117 401890133
K0S9 
11nm SW 
020815Z AUTO 00000KT 10SM OVC065 13/12 A3012 RMK AO2
KAWO 
19nm E 
020756Z AUTO 31005KT 10SM 14/12 A3013 RMK AO2 SLP206 T01440122 402610144 $
KBVS 
19nm NE 
020815Z AUTO 00000KT 7SM FEW037 OVC060 13/12 A3013 RMK A01
TAF
KNUW 
10nm N 
0123/0223 23008KT 9999 SCT010 BKN150 OVC250 QNH3009INS TEMPO 0209/0215 6000 BR BKN010 BKN100 FM021800 27010KT 9999 SCT010 QNH3007INS T13/0213Z T17/0223Z FS30173
NOTAMs
Click for the latest NOTAMs
NOTAMs are issued by the DoD/FAA and will open in a separate window not controlled by AirNav.

 

 
 

Would you like to see your business listed on this page?

 If your business provides an interesting product or service to pilots, flight crews, aircraft, or users of the Coupeville Naval Outlying Field, you should consider listing it here.  To start the listing process, click on the button below
 
Add a business
 

Other Pages about Coupeville Naval Outlying Field

Update a link
 
Copyright © AirNav, LLC. All rights reserved. Privacy Policy  Contact